Time,TemperatureF,DewpointF,PressureIn,WindDirection,WindDirectionDegrees,WindSpeedMPH,WindSpeedGustMPH,Humidity,HourlyPrecipIn,Conditions,Clouds,dailyrainin,SoftwareType,DateUTC
2013-02-15 00:00:00,44.0,41.0,-100.00,SE,133,2.0,-999.0,89,0.00,,,-99.99,,2013-02-15 08:00:00,
2013-02-15 00:21:00,44.0,41.0,-100.00,SE,133,2.0,-999.0,89,0.00,,,-99.99,,2013-02-15 08:21:00,
2013-02-15 00:32:00,44.0,41.0,-100.00,SE,133,2.0,-999.0,89,0.00,,,-99.99,,2013-02-15 08:32:00,
2013-02-15 00:42:00,44.0,41.0,-100.00,SE,133,2.0,-999.0,89,0.00,,,-99.99,,2013-02-15 08:42:00,
2013-02-15 00:53:00,44.0,41.0,-100.00,SE,133,2.0,-999.0,89,0.00,,,-99.99,,2013-02-15 08:53:00,
2013-02-15 01:00:00,42.0,40.0,-100.00,South,174,3.0,-999.0,93,0.00,,,-99.99,,2013-02-15 09:00:00,
2013-02-15 01:22:00,42.0,40.0,-100.00,South,174,3.0,-999.0,93,0.00,,,-99.99,,2013-02-15 09:22:00,
2013-02-15 01:32:00,42.0,40.0,-100.00,South,174,3.0,-999.0,93,0.00,,,-99.99,,2013-02-15 09:32:00,
2013-02-15 01:42:00,42.0,40.0,-100.00,South,174,3.0,-999.0,93,0.00,,,-99.99,,2013-02-15 09:42:00,
2013-02-15 01:52:00,42.0,40.0,-100.00,South,174,3.0,-999.0,93,0.00,,,-99.99,,2013-02-15 09:52:00,
2013-02-15 02:00:00,40.0,39.0,-100.00,South,170,4.0,-999.0,94,0.00,,,-99.99,,2013-02-15 10:00:00,
2013-02-15 02:21:00,40.0,39.0,-100.00,South,170,4.0,-999.0,94,0.00,,,-99.99,,2013-02-15 10:21:00,
2013-02-15 02:32:00,40.0,39.0,-100.00,South,170,4.0,-999.0,94,0.00,,,-99.99,,2013-02-15 10:32:00,
2013-02-15 02:42:00,40.0,39.0,-100.00,South,170,4.0,-999.0,94,0.00,,,-99.99,,2013-02-15 10:42:00,
2013-02-15 02:52:00,40.0,39.0,-100.00,South,170,4.0,-999.0,94,0.00,,,-99.99,,2013-02-15 10:52:00,
2013-02-15 03:00:00,40.0,38.0,-100.00,SSE,159,5.0,-999.0,94,0.00,,,-99.99,,2013-02-15 11:00:00,
2013-02-15 03:23:00,40.0,38.0,-100.00,SSE,159,5.0,-999.0,94,0.00,,,-99.99,,2013-02-15 11:23:00,
2013-02-15 03:32:00,40.0,38.0,-100.00,SSE,159,5.0,-999.0,94,0.00,,,-99.99,,2013-02-15 11:32:00,
2013-02-15 03:42:00,40.0,38.0,-100.00,SSE,159,5.0,-999.0,94,0.00,,,-99.99,,2013-02-15 11:42:00,
2013-02-15 03:52:00,40.0,38.0,-100.00,SSE,159,5.0,-999.0,94,0.00,,,-99.99,,2013-02-15 11:52:00,
2013-02-15 04:00:00,39.0,38.0,-100.00,South,172,2.0,-999.0,93,0.00,,,-99.99,,2013-02-15 12:00:00,
2013-02-15 04:22:00,39.0,38.0,-100.00,South,172,2.0,-999.0,93,0.00,,,-99.99,,2013-02-15 12:22:00,
2013-02-15 04:32:00,39.0,38.0,-100.00,South,172,2.0,-999.0,93,0.00,,,-99.99,,2013-02-15 12:32:00,
2013-02-15 04:42:00,39.0,38.0,-100.00,South,172,2.0,-999.0,93,0.00,,,-99.99,,2013-02-15 12:42:00,
2013-02-15 04:52:00,39.0,38.0,-100.00,South,172,2.0,-999.0,93,0.00,,,-99.99,,2013-02-15 12:52:00,
2013-02-15 05:00:00,38.0,37.0,-100.00,South,170,5.0,-999.0,94,0.00,,,-99.99,,2013-02-15 13:00:00,
2013-02-15 05:22:00,38.0,37.0,-100.00,South,170,5.0,-999.0,94,0.00,,,-99.99,,2013-02-15 13:22:00,
2013-02-15 05:32:00,38.0,37.0,-100.00,South,170,5.0,-999.0,94,0.00,,,-99.99,,2013-02-15 13:32:00,
2013-02-15 05:42:00,38.0,37.0,-100.00,South,170,5.0,-999.0,94,0.00,,,-99.99,,2013-02-15 13:42:00,
2013-02-15 05:52:00,38.0,37.0,-100.00,South,170,5.0,-999.0,94,0.00,,,-99.99,,2013-02-15 13:52:00,
2013-02-15 11:00:00,54.0,42.0,-100.00,SSE,163,3.0,-999.0,63,0.00,,,-99.99,,2013-02-15 19:00:00,
2013-02-15 11:22:00,54.0,42.0,-100.00,SSE,163,3.0,-999.0,63,0.00,,,-99.99,,2013-02-15 19:22:00,
2013-02-15 11:32:00,54.0,42.0,-100.00,SSE,163,3.0,-999.0,63,0.00,,,-99.99,,2013-02-15 19:32:00,
2013-02-15 11:42:00,54.0,42.0,-100.00,SSE,163,3.0,-999.0,63,0.00,,,-99.99,,2013-02-15 19:42:00,
2013-02-15 11:52:00,54.0,42.0,-100.00,SSE,163,3.0,-999.0,63,0.00,,,-99.99,,2013-02-15 19:52:00,
2013-02-15 12:00:00,63.0,44.0,-100.00,South,191,1.0,-999.0,51,0.00,,,-99.99,,2013-02-15 20:00:00,
2013-02-15 12:22:00,63.0,44.0,-100.00,South,191,1.0,-999.0,51,0.00,,,-99.99,,2013-02-15 20:22:00,
2013-02-15 12:32:00,63.0,44.0,-100.00,South,191,1.0,-999.0,51,0.00,,,-99.99,,2013-02-15 20:32:00,
2013-02-15 12:42:00,63.0,44.0,-100.00,South,191,1.0,-999.0,51,0.00,,,-99.99,,2013-02-15 20:42:00,
2013-02-15 12:52:00,63.0,44.0,-100.00,South,191,1.0,-999.0,51,0.00,,,-99.99,,2013-02-15 20:52:00,
2013-02-15 13:00:00,70.0,39.0,-100.00,South,175,2.0,-999.0,33,0.00,,,-99.99,,2013-02-15 21:00:00,
2013-02-15 13:22:00,70.0,39.0,-100.00,South,175,2.0,-999.0,33,0.00,,,-99.99,,2013-02-15 21:22:00,
2013-02-15 13:32:00,70.0,39.0,-100.00,South,175,2.0,-999.0,33,0.00,,,-99.99,,2013-02-15 21:32:00,
2013-02-15 13:42:00,70.0,39.0,-100.00,South,175,2.0,-999.0,33,0.00,,,-99.99,,2013-02-15 21:42:00,
2013-02-15 13:52:00,70.0,39.0,-100.00,South,175,2.0,-999.0,33,0.00,,,-99.99,,2013-02-15 21:52:00,
2013-02-15 14:00:00,72.0,36.0,-100.00,South,183,4.0,-999.0,26,0.00,,,-99.99,,2013-02-15 22:00:00,
2013-02-15 14:22:00,72.0,36.0,-100.00,South,183,4.0,-999.0,26,0.00,,,-99.99,,2013-02-15 22:22:00,
2013-02-15 14:32:00,72.0,36.0,-100.00,South,183,4.0,-999.0,26,0.00,,,-99.99,,2013-02-15 22:32:00,
2013-02-15 14:42:00,72.0,36.0,-100.00,South,183,4.0,-999.0,26,0.00,,,-99.99,,2013-02-15 22:42:00,
2013-02-15 14:52:00,72.0,36.0,-100.00,South,183,4.0,-999.0,26,0.00,,,-99.99,,2013-02-15 22:52:00,
2013-02-15 15:00:00,74.0,36.0,-100.00,South,191,4.0,-999.0,25,0.00,,,-99.99,,2013-02-15 23:00:00,
2013-02-15 15:21:00,74.0,36.0,-100.00,South,191,4.0,-999.0,25,0.00,,,-99.99,,2013-02-15 23:21:00,
2013-02-15 15:32:00,74.0,36.0,-100.00,South,191,4.0,-999.0,25,0.00,,,-99.99,,2013-02-15 23:32:00,
2013-02-15 15:42:00,74.0,36.0,-100.00,South,191,4.0,-999.0,25,0.00,,,-99.99,,2013-02-15 23:42:00,
2013-02-15 15:52:00,74.0,36.0,-100.00,South,191,4.0,-999.0,25,0.00,,,-99.99,,2013-02-15 23:52:00,
2013-02-15 16:00:00,72.0,38.0,-100.00,SSW,201,7.0,-999.0,28,0.00,,,-99.99,,2013-02-16 00:00:00,
2013-02-15 16:22:00,72.0,38.0,-100.00,SSW,201,7.0,-999.0,28,0.00,,,-99.99,,2013-02-16 00:22:00,
2013-02-15 16:32:00,72.0,38.0,-100.00,SSW,201,7.0,-999.0,28,0.00,,,-99.99,,2013-02-16 00:32:00,
2013-02-15 16:42:00,72.0,38.0,-100.00,SSW,201,7.0,-999.0,28,0.00,,,-99.99,,2013-02-16 00:42:00,
2013-02-15 16:52:00,72.0,38.0,-100.00,SSW,201,7.0,-999.0,28,0.00,,,-99.99,,2013-02-16 00:52:00,
2013-02-15 17:00:00,67.0,33.0,-100.00,NW,321,4.0,-999.0,29,0.00,,,-99.99,,2013-02-16 01:00:00,
2013-02-15 17:21:00,67.0,33.0,-100.00,NW,321,4.0,-999.0,29,0.00,,,-99.99,,2013-02-16 01:21:00,
2013-02-15 17:32:00,67.0,33.0,-100.00,NW,321,4.0,-999.0,29,0.00,,,-99.99,,2013-02-16 01:32:00,
2013-02-15 17:42:00,67.0,33.0,-100.00,NW,321,4.0,-999.0,29,0.00,,,-99.99,,2013-02-16 01:42:00,
2013-02-15 17:52:00,67.0,33.0,-100.00,NW,321,4.0,-999.0,29,0.00,,,-99.99,,2013-02-16 01:52:00,
2013-02-15 18:00:00,63.0,36.0,-100.00,North,354,1.0,-999.0,36,0.00,,,-99.99,,2013-02-16 02:00:00,
2013-02-15 18:22:00,63.0,36.0,-100.00,North,354,1.0,-999.0,36,0.00,,,-99.99,,2013-02-16 02:22:00,
2013-02-15 18:32:00,63.0,36.0,-100.00,North,354,1.0,-999.0,36,0.00,,,-99.99,,2013-02-16 02:32:00,
2013-02-15 18:42:00,63.0,36.0,-100.00,North,354,1.0,-999.0,36,0.00,,,-99.99,,2013-02-16 02:42:00,
2013-02-15 18:52:00,63.0,36.0,-100.00,North,354,1.0,-999.0,36,0.00,,,-99.99,,2013-02-16 02:52:00,
2013-02-15 19:00:00,58.0,38.0,-100.00,NE,46,0.0,-999.0,47,0.00,,,-99.99,,2013-02-16 03:00:00,
2013-02-15 19:21:00,58.0,38.0,-100.00,NE,46,0.0,-999.0,47,0.00,,,-99.99,,2013-02-16 03:21:00,
2013-02-15 19:32:00,58.0,38.0,-100.00,NE,46,0.0,-999.0,47,0.00,,,-99.99,,2013-02-16 03:32:00,
2013-02-15 19:42:00,58.0,38.0,-100.00,NE,46,0.0,-999.0,47,0.00,,,-99.99,,2013-02-16 03:42:00,
2013-02-15 19:52:00,58.0,38.0,-100.00,NE,46,0.0,-999.0,47,0.00,,,-99.99,,2013-02-16 03:52:00,
2013-02-15 20:00:00,53.0,42.0,-100.00,South,171,2.0,-999.0,65,0.00,,,-99.99,,2013-02-16 04:00:00,
2013-02-15 20:21:00,53.0,42.0,-100.00,South,171,2.0,-999.0,65,0.00,,,-99.99,,2013-02-16 04:21:00,
2013-02-15 20:32:00,53.0,42.0,-100.00,South,171,2.0,-999.0,65,0.00,,,-99.99,,2013-02-16 04:32:00,
2013-02-15 20:42:00,53.0,42.0,-100.00,South,171,2.0,-999.0,65,0.00,,,-99.99,,2013-02-16 04:42:00,
2013-02-15 20:52:00,53.0,42.0,-100.00,South,171,2.0,-999.0,65,0.00,,,-99.99,,2013-02-16 04:52:00,
2013-02-15 21:00:00,49.0,41.0,-100.00,South,174,4.0,-999.0,73,0.00,,,-99.99,,2013-02-16 05:00:00,
2013-02-15 21:22:00,49.0,41.0,-100.00,South,174,4.0,-999.0,73,0.00,,,-99.99,,2013-02-16 05:22:00,
2013-02-15 21:32:00,49.0,41.0,-100.00,South,174,4.0,-999.0,73,0.00,,,-99.99,,2013-02-16 05:32:00,
2013-02-15 21:42:00,49.0,41.0,-100.00,South,174,4.0,-999.0,73,0.00,,,-99.99,,2013-02-16 05:42:00,
2013-02-15 21:52:00,49.0,41.0,-100.00,South,174,4.0,-999.0,73,0.00,,,-99.99,,2013-02-16 05:52:00,
2013-02-15 22:00:00,46.0,40.0,-100.00,SSE,163,5.0,-999.0,80,0.00,,,-99.99,,2013-02-16 06:00:00,
2013-02-15 22:22:00,46.0,40.0,-100.00,SSE,163,5.0,-999.0,80,0.00,,,-99.99,,2013-02-16 06:22:00,
2013-02-15 22:32:00,46.0,40.0,-100.00,SSE,163,5.0,-999.0,80,0.00,,,-99.99,,2013-02-16 06:32:00,
2013-02-15 22:42:00,46.0,40.0,-100.00,SSE,163,5.0,-999.0,80,0.00,,,-99.99,,2013-02-16 06:42:00,
2013-02-15 22:52:00,46.0,40.0,-100.00,SSE,163,5.0,-999.0,80,0.00,,,-99.99,,2013-02-16 06:52:00,
2013-02-15 23:00:00,46.0,40.0,-100.00,SE,130,3.0,-999.0,78,0.00,,,-99.99,,2013-02-16 07:00:00,
2013-02-15 23:22:00,46.0,40.0,-100.00,SE,130,3.0,-999.0,78,0.00,,,-99.99,,2013-02-16 07:22:00,
2013-02-15 23:32:00,46.0,40.0,-100.00,SE,130,3.0,-999.0,78,0.00,,,-99.99,,2013-02-16 07:32:00,
2013-02-15 23:42:00,46.0,40.0,-100.00,SE,130,3.0,-999.0,78,0.00,,,-99.99,,2013-02-16 07:42:00,
2013-02-15 23:53:00,46.0,40.0,-100.00,SE,130,3.0,-999.0,78,0.00,,,-99.99,,2013-02-16 07:53:00,